createdAt,value
2018-12-04T00:00:09.010Z,0.60
2018-12-04T00:02:38.282Z,0.70
2018-12-04T00:05:07.643Z,1.10
2018-12-04T00:07:36.828Z,1.05
2018-12-04T00:10:08.379Z,0.90
2018-12-04T00:12:37.551Z,1.15
2018-12-04T00:15:07.012Z,1.10
2018-12-04T00:17:36.199Z,1.47
2018-12-04T00:20:06.022Z,1.32
2018-12-04T00:22:35.262Z,1.20
2018-12-04T00:25:05.042Z,1.60
2018-12-04T00:27:34.270Z,1.60
2018-12-04T00:30:03.715Z,1.52
2018-12-04T00:32:32.911Z,1.50
2018-12-04T00:35:02.197Z,1.40
2018-12-04T00:37:31.457Z,1.52
2018-12-04T00:40:00.764Z,1.40
2018-12-04T00:42:30.083Z,1.50
2018-12-04T00:44:59.375Z,1.27
2018-12-04T00:47:28.595Z,1.20
2018-12-04T00:49:57.771Z,1.50
2018-12-04T00:52:26.960Z,1.30
2018-12-04T00:54:56.157Z,1.20
2018-12-04T00:57:25.457Z,1.40
2018-12-04T00:59:54.662Z,1.10
2018-12-04T01:02:24.206Z,1.25
2018-12-04T01:04:53.486Z,1.17
2018-12-04T01:07:22.705Z,1.20
2018-12-04T01:09:51.887Z,1.00
2018-12-04T01:12:21.111Z,1.20
2018-12-04T01:14:50.378Z,1.15
2018-12-04T01:17:19.698Z,0.93
2018-12-04T01:19:48.986Z,1.45
2018-12-04T01:22:18.159Z,1.10
2018-12-04T01:24:47.453Z,1.12
2018-12-04T01:27:16.628Z,0.80
2018-12-04T01:29:45.890Z,0.95
2018-12-04T01:32:15.196Z,1.10
2018-12-04T01:34:44.475Z,1.00
2018-12-04T01:37:13.783Z,1.05
2018-12-04T01:39:43.050Z,0.80
2018-12-04T01:42:12.255Z,0.90
2018-12-04T01:44:41.464Z,0.68
2018-12-04T01:47:10.682Z,0.90
2018-12-04T01:49:39.958Z,0.80
2018-12-04T01:52:09.150Z,0.80
2018-12-04T01:54:38.382Z,0.72
2018-12-04T01:57:07.572Z,0.93
2018-12-04T01:59:36.779Z,0.70
2018-12-04T02:02:06.159Z,1.05
2018-12-04T02:04:35.379Z,0.82
2018-12-04T02:07:04.875Z,0.93
2018-12-04T02:09:34.210Z,0.90
2018-12-04T02:12:03.560Z,0.70
2018-12-04T02:14:32.848Z,0.80
2018-12-04T02:17:02.175Z,0.75
2018-12-04T02:19:31.503Z,0.85
2018-12-04T02:22:00.853Z,1.00
2018-12-04T02:24:30.159Z,0.82
2018-12-04T02:26:59.353Z,0.70
2018-12-04T02:29:28.582Z,0.60
2018-12-04T02:31:58.014Z,0.90
2018-12-04T02:34:27.250Z,0.72
2018-12-04T02:36:56.470Z,0.62
2018-12-04T02:39:25.720Z,0.50
2018-12-04T02:41:55.255Z,0.90
2018-12-04T02:44:24.506Z,1.50
2018-12-04T02:46:53.805Z,1.05
2018-12-04T02:49:23.126Z,0.95
2018-12-04T02:51:52.348Z,0.98
2018-12-04T02:54:21.674Z,1.02
2018-12-04T02:56:51.199Z,0.85
2018-12-04T02:59:20.464Z,0.93
2018-12-04T03:01:49.759Z,0.95
2018-12-04T03:04:19.076Z,1.05
2018-12-04T03:06:48.465Z,0.90
2018-12-04T03:09:17.694Z,1.05
2018-12-04T03:11:46.896Z,1.00
2018-12-04T03:14:16.166Z,1.15
2018-12-04T03:16:45.474Z,1.10
2018-12-04T03:19:14.695Z,0.78
2018-12-04T03:21:43.956Z,0.85
2018-12-04T03:24:13.325Z,0.72
2018-12-04T03:26:42.506Z,0.93
2018-12-04T03:29:11.723Z,0.70
2018-12-04T03:31:40.904Z,0.85
2018-12-04T03:34:10.325Z,0.78
2018-12-04T03:36:39.511Z,0.88
2018-12-04T03:39:09.575Z,0.70
2018-12-04T03:41:39.485Z,0.80
2018-12-04T03:44:08.723Z,0.68
2018-12-04T03:46:37.962Z,1.07
2018-12-04T03:49:07.289Z,0.93
2018-12-04T03:51:36.727Z,0.62
2018-12-04T03:54:06.129Z,0.70
2018-12-04T03:56:35.389Z,0.60
2018-12-04T03:59:04.812Z,0.80
2018-12-04T04:01:34.089Z,0.60
2018-12-04T04:04:03.385Z,0.80
2018-12-04T04:06:32.698Z,0.65
2018-12-04T04:09:01.959Z,0.90
2018-12-04T04:11:31.166Z,0.85
2018-12-04T04:14:00.386Z,2.77
2018-12-04T04:16:29.663Z,2.10
2018-12-04T04:18:59.098Z,0.68
2018-12-04T04:21:28.331Z,0.90
2018-12-04T04:23:57.550Z,0.80
2018-12-04T04:26:26.727Z,0.80
2018-12-04T04:28:56.012Z,0.75
2018-12-04T04:31:25.334Z,0.82
2018-12-04T04:33:54.646Z,1.00
2018-12-04T04:36:23.863Z,1.00
2018-12-04T04:38:53.188Z,1.10
2018-12-04T04:41:22.384Z,1.80
2018-12-04T04:43:51.755Z,1.32
2018-12-04T04:46:20.955Z,0.80
2018-12-04T04:48:50.239Z,0.65
2018-12-04T04:51:19.459Z,0.90
2018-12-04T04:53:48.677Z,0.60
2018-12-04T04:56:18.123Z,0.65
2018-12-04T04:58:47.401Z,0.70
2018-12-04T05:01:16.782Z,1.62
2018-12-04T05:03:46.044Z,0.57
2018-12-04T05:06:15.255Z,0.50
2018-12-04T05:08:44.448Z,0.40
2018-12-04T05:11:13.756Z,0.40
2018-12-04T05:13:43.076Z,0.40
2018-12-04T05:16:12.533Z,0.40
2018-12-04T05:18:42.222Z,0.30
2018-12-04T05:21:11.554Z,0.40
2018-12-04T05:23:40.752Z,0.33
2018-12-04T05:26:09.999Z,0.33
2018-12-04T05:28:39.200Z,0.37
2018-12-04T05:31:08.490Z,0.50
2018-12-04T05:33:37.687Z,0.40
2018-12-04T05:36:06.989Z,0.33
2018-12-04T05:38:36.254Z,0.50
2018-12-04T05:41:05.454Z,0.50
2018-12-04T05:43:34.635Z,0.70
2018-12-04T05:46:03.951Z,0.72
2018-12-04T05:48:33.138Z,0.80
2018-12-04T05:51:02.354Z,0.70
2018-12-04T05:53:36.698Z,0.53
2018-12-04T05:56:09.820Z,0.50
2018-12-04T05:58:39.003Z,0.60
2018-12-04T06:01:08.211Z,0.55
2018-12-04T06:03:37.463Z,0.50
2018-12-04T06:06:06.654Z,0.70
2018-12-04T06:08:35.890Z,0.53
2018-12-04T06:11:05.207Z,0.82
2018-12-04T06:13:34.383Z,0.50
2018-12-04T06:16:03.630Z,0.50
2018-12-04T06:18:33.014Z,0.50
2018-12-04T06:21:02.268Z,0.60
2018-12-04T06:23:31.510Z,0.40
2018-12-04T06:26:00.807Z,0.50
2018-12-04T06:28:29.979Z,0.70
2018-12-04T06:30:59.259Z,0.68
2018-12-04T06:33:28.582Z,1.40
2018-12-04T06:35:57.768Z,0.65
2018-12-04T06:38:27.035Z,0.68
2018-12-04T06:41:02.907Z,0.70
2018-12-04T06:43:32.135Z,0.70
2018-12-04T06:46:01.587Z,0.70
2018-12-04T06:48:30.756Z,0.65
2018-12-04T06:51:00.002Z,1.02
2018-12-04T06:53:29.169Z,0.85
2018-12-04T06:55:58.353Z,1.47
2018-12-04T06:58:27.527Z,0.88
2018-12-04T07:00:56.817Z,1.05
2018-12-04T07:03:25.979Z,1.02
2018-12-04T07:05:56.067Z,1.20
2018-12-04T07:08:25.339Z,1.10
2018-12-04T07:10:54.614Z,1.15
2018-12-04T07:13:23.782Z,1.20
2018-12-04T07:15:52.977Z,1.05
2018-12-04T07:18:22.155Z,1.30
2018-12-04T07:20:51.330Z,1.22
2018-12-04T07:23:20.514Z,1.40
2018-12-04T07:25:49.701Z,1.20
2018-12-04T07:28:18.873Z,1.25
2018-12-04T07:30:48.059Z,1.00
2018-12-04T07:33:17.314Z,0.90
2018-12-04T07:35:46.582Z,0.85
2018-12-04T07:38:15.863Z,1.00
2018-12-04T07:40:45.072Z,1.32
2018-12-04T07:43:14.239Z,1.42
2018-12-04T07:45:43.428Z,1.30
2018-12-04T07:48:12.596Z,1.30
2018-12-04T07:50:44.879Z,1.55
2018-12-04T07:53:14.148Z,1.52
2018-12-04T07:55:45.653Z,1.27
2018-12-04T07:58:15.766Z,1.10
2018-12-04T08:00:45.180Z,1.80
2018-12-04T08:03:14.379Z,1.45
2018-12-04T08:05:43.563Z,1.45
2018-12-04T08:08:12.742Z,1.00
2018-12-04T08:10:41.929Z,1.27
2018-12-04T08:13:11.095Z,1.10
2018-12-04T08:15:40.411Z,1.10
2018-12-04T08:18:09.584Z,1.42
2018-12-04T08:20:38.766Z,1.00
2018-12-04T08:23:07.942Z,1.15
2018-12-04T08:25:37.181Z,1.40
2018-12-04T08:28:06.374Z,1.07
2018-12-04T08:30:35.545Z,0.80
2018-12-04T08:33:04.888Z,0.62
2018-12-04T08:35:34.099Z,0.70
2018-12-04T08:38:03.379Z,0.82
2018-12-04T08:40:32.587Z,1.30
2018-12-04T08:43:01.783Z,1.12
2018-12-04T08:45:30.947Z,1.07
2018-12-04T08:48:00.169Z,0.80
2018-12-04T08:50:29.478Z,0.88
2018-12-04T08:52:58.681Z,0.72
2018-12-04T08:55:27.953Z,0.90
2018-12-04T08:57:57.133Z,0.80
2018-12-04T09:00:26.380Z,0.62
2018-12-04T09:02:55.655Z,0.82
2018-12-04T09:05:25.808Z,0.88
2018-12-04T09:07:55.074Z,0.82
2018-12-04T09:10:24.293Z,0.80
2018-12-04T09:12:53.566Z,0.80
2018-12-04T09:15:23.279Z,1.00
2018-12-04T09:17:52.551Z,0.93
2018-12-04T09:20:21.803Z,0.70
2018-12-04T09:22:51.060Z,1.00
2018-12-04T09:25:20.381Z,0.75
2018-12-04T09:27:49.702Z,1.00
2018-12-04T09:30:18.960Z,0.85
2018-12-04T09:32:48.271Z,0.90
2018-12-04T09:35:17.454Z,0.78
2018-12-04T09:37:46.630Z,1.00
2018-12-04T09:40:15.926Z,0.80
2018-12-04T09:42:45.252Z,1.45
2018-12-04T09:45:14.407Z,0.90
2018-12-04T09:47:43.735Z,0.70
2018-12-04T09:50:13.087Z,1.02
2018-12-04T09:52:42.276Z,0.82
2018-12-04T09:55:11.451Z,1.22
2018-12-04T09:57:40.635Z,1.02
2018-12-04T10:00:10.573Z,0.72
2018-12-04T10:02:39.778Z,0.82
2018-12-04T10:05:09.062Z,0.80
2018-12-04T10:07:38.255Z,0.90
2018-12-04T10:10:12.111Z,0.93
2018-12-04T10:12:41.433Z,1.22
2018-12-04T10:15:10.771Z,0.95
2018-12-04T10:17:39.971Z,0.93
2018-12-04T10:20:11.733Z,1.15
2018-12-04T10:22:40.935Z,0.80
2018-12-04T10:25:10.212Z,1.60
2018-12-04T10:27:39.401Z,1.40
2018-12-04T10:30:10.488Z,1.07
2018-12-04T10:32:39.870Z,1.32
2018-12-04T10:35:09.219Z,1.27
2018-12-04T10:37:38.454Z,1.10
2018-12-04T10:40:08.890Z,2.75
2018-12-04T10:42:38.090Z,4.72
2018-12-04T10:45:08.299Z,2.33
2018-12-04T10:47:37.547Z,1.10
2018-12-04T10:50:08.874Z,1.45
2018-12-04T10:52:38.294Z,0.90
2018-12-04T10:55:07.759Z,0.93
2018-12-04T10:57:36.963Z,1.15
2018-12-04T11:03:13.631Z,1.52
2018-12-04T11:05:43.686Z,2.45
2018-12-04T11:08:12.875Z,1.47
2018-12-04T11:10:42.047Z,1.80
2018-12-04T11:13:11.287Z,1.60
2018-12-04T11:15:40.535Z,2.10
2018-12-04T11:18:09.719Z,1.60
2018-12-04T11:20:38.886Z,1.02
2018-12-04T11:23:08.063Z,1.47
2018-12-04T11:25:37.228Z,1.20
2018-12-04T11:28:06.532Z,1.35
2018-12-04T11:30:35.734Z,1.00
2018-12-04T11:33:05.227Z,1.40
2018-12-04T11:35:34.399Z,1.07
2018-12-04T11:38:03.635Z,1.30
2018-12-04T11:40:32.866Z,0.95
2018-12-04T11:43:02.132Z,1.10
2018-12-04T11:45:31.368Z,1.30
2018-12-04T11:48:00.627Z,1.25
2018-12-04T11:50:29.808Z,1.22
2018-12-04T11:52:59.008Z,1.50
2018-12-04T11:55:28.245Z,0.98
2018-12-04T11:57:57.468Z,1.20
2018-12-04T12:00:32.035Z,0.98
2018-12-04T12:03:01.428Z,1.17
2018-12-04T12:05:30.899Z,1.15
2018-12-04T12:08:00.123Z,1.10
2018-12-04T12:10:29.339Z,1.00
2018-12-04T12:12:58.583Z,1.10
2018-12-04T12:15:27.866Z,1.40
2018-12-04T12:17:57.155Z,1.22
2018-12-04T12:20:26.387Z,1.45
2018-12-04T12:22:55.615Z,1.27
2018-12-04T12:25:24.894Z,1.25
2018-12-04T12:27:54.182Z,1.20
2018-12-04T12:30:23.372Z,1.15
2018-12-04T12:32:52.742Z,1.02
2018-12-04T12:35:22.015Z,1.50
2018-12-04T12:37:51.215Z,1.10
2018-12-04T12:40:20.407Z,1.42
2018-12-04T12:42:50.769Z,1.05
2018-12-04T12:45:20.104Z,1.50
2018-12-04T12:47:49.607Z,0.90
2018-12-04T12:50:18.783Z,1.02
2018-12-04T12:52:48.030Z,1.10
2018-12-04T12:55:17.210Z,1.15
2018-12-04T12:57:46.411Z,1.22
2018-12-04T13:00:15.595Z,0.70
2018-12-04T13:02:44.799Z,1.12
2018-12-04T13:05:14.110Z,1.12
2018-12-04T13:07:43.336Z,0.90
2018-12-04T13:10:12.645Z,1.25
2018-12-04T13:12:41.911Z,1.00
2018-12-04T13:15:11.206Z,0.90
2018-12-04T13:17:40.408Z,0.85
2018-12-04T13:20:09.960Z,0.90
2018-12-04T13:22:39.155Z,1.02
2018-12-04T13:25:08.759Z,1.10
2018-12-04T13:27:37.947Z,0.90
2018-12-04T13:30:09.004Z,0.70
2018-12-04T13:32:38.270Z,1.10
2018-12-04T13:35:07.687Z,1.90
2018-12-04T13:37:36.878Z,2.80
2018-12-04T13:40:08.803Z,1.10
2018-12-04T13:42:38.290Z,1.80
2018-12-04T13:45:08.211Z,1.00
2018-12-04T13:47:37.383Z,1.30
2018-12-04T13:50:06.891Z,0.82
2018-12-04T13:52:36.997Z,1.30
2018-12-04T13:55:06.607Z,1.20
2018-12-04T13:57:35.958Z,1.05
2018-12-04T14:00:06.913Z,1.15
2018-12-04T14:02:36.096Z,0.90
2018-12-04T14:05:08.049Z,1.10
2018-12-04T14:07:37.561Z,1.10
2018-12-04T14:10:09.657Z,1.62
2018-12-04T14:12:38.844Z,1.12
2018-12-04T14:15:08.406Z,1.02
2018-12-04T14:17:37.594Z,1.40
2018-12-04T14:20:09.246Z,1.22
2018-12-04T14:22:38.791Z,1.62
2018-12-04T14:25:08.470Z,1.40
2018-12-04T14:27:37.750Z,1.20
2018-12-04T14:30:11.293Z,1.77
2018-12-04T14:32:40.584Z,1.40
2018-12-04T14:35:09.900Z,1.30
2018-12-04T14:37:39.143Z,2.35
2018-12-04T14:40:09.400Z,1.50
2018-12-04T14:42:38.729Z,1.50
2018-12-04T14:45:08.257Z,1.42
2018-12-04T14:47:38.990Z,1.20
2018-12-04T14:50:09.838Z,1.40
2018-12-04T14:52:39.111Z,1.22
2018-12-04T14:55:09.102Z,1.22
2018-12-04T14:57:38.270Z,1.30
2018-12-04T15:00:10.374Z,1.67
2018-12-04T15:02:39.668Z,1.00
2018-12-04T15:05:10.147Z,3.20
2018-12-04T15:07:39.439Z,1.90
2018-12-04T15:10:11.130Z,1.50
2018-12-04T15:12:40.298Z,1.40
2018-12-04T15:15:16.450Z,1.15
2018-12-04T15:17:45.615Z,1.57
2018-12-04T15:20:14.817Z,1.30
2018-12-04T15:22:43.997Z,1.17
2018-12-04T15:25:13.243Z,1.20
2018-12-04T15:27:42.639Z,1.80
2018-12-04T15:30:12.120Z,1.47
2018-12-04T15:32:41.482Z,3.58
2018-12-04T15:35:10.804Z,1.25
2018-12-04T15:37:40.070Z,1.40
2018-12-04T15:40:09.507Z,1.92
2018-12-04T15:42:38.683Z,2.55
2018-12-04T15:45:08.093Z,2.42
2018-12-04T15:47:37.505Z,2.77
2018-12-04T15:50:08.201Z,2.58
2018-12-04T15:52:37.395Z,2.35
2018-12-04T15:55:07.044Z,1.47
2018-12-04T15:57:36.318Z,1.50
2018-12-04T16:00:09.265Z,1.60
2018-12-04T16:02:38.538Z,1.95
2018-12-04T16:05:09.534Z,2.37
2018-12-04T16:07:38.707Z,1.85
2018-12-04T16:10:13.367Z,1.57
2018-12-04T16:12:42.554Z,2.00
2018-12-04T16:15:11.942Z,2.25
2018-12-04T16:17:41.115Z,2.17
2018-12-04T16:20:10.606Z,2.30
2018-12-04T16:22:39.822Z,2.50
2018-12-04T16:25:10.079Z,2.35
2018-12-04T16:27:39.323Z,1.92
2018-12-04T16:30:10.466Z,2.17
2018-12-04T16:32:39.638Z,2.85
2018-12-04T16:35:09.623Z,2.80
2018-12-04T16:37:38.899Z,2.90
2018-12-04T16:40:09.310Z,3.20
2018-12-04T16:42:38.500Z,2.87
2018-12-04T16:45:08.079Z,2.12
2018-12-04T16:47:37.251Z,3.10
2018-12-04T16:50:07.289Z,3.50
2018-12-04T16:52:36.552Z,2.90
2018-12-04T16:55:07.191Z,2.95
2018-12-04T16:57:36.443Z,3.50
2018-12-04T17:00:08.367Z,2.77
2018-12-04T17:02:37.621Z,3.05
2018-12-04T17:05:07.194Z,2.87
2018-12-04T17:09:00.945Z,4.70
2018-12-04T17:11:30.267Z,3.10
2018-12-04T17:13:59.431Z,2.98
2018-12-04T17:16:28.711Z,2.80
2018-12-04T17:18:58.171Z,2.67
2018-12-04T17:21:27.366Z,2.90
2018-12-04T17:23:56.563Z,2.02
2018-12-04T17:26:25.851Z,3.33
2018-12-04T17:28:55.030Z,3.27
2018-12-04T17:31:24.215Z,3.33
2018-12-04T17:33:55.028Z,3.33
2018-12-04T17:36:24.490Z,3.30
2018-12-04T17:38:53.684Z,3.30
2018-12-04T17:41:22.958Z,3.22
2018-12-04T17:43:52.292Z,3.83
2018-12-04T17:46:21.485Z,4.70
2018-12-04T17:48:50.659Z,3.33
2018-12-04T17:51:19.859Z,3.80
2018-12-04T17:53:49.101Z,3.40
2018-12-04T17:56:18.321Z,3.37
2018-12-04T17:58:47.507Z,15.03
2018-12-04T18:01:16.716Z,18.40
2018-12-04T18:03:46.598Z,16.10
2018-12-04T18:06:15.786Z,7.10
2018-12-04T18:08:45.071Z,5.50
2018-12-04T18:11:14.398Z,5.90
2018-12-04T18:13:43.607Z,9.35
2018-12-04T18:16:12.899Z,12.00
2018-12-04T18:18:42.066Z,7.25
2018-12-04T18:21:11.252Z,6.17
2018-12-04T18:23:40.418Z,5.15
2018-12-04T18:26:09.703Z,5.22
2018-12-04T18:28:39.743Z,5.75
2018-12-04T18:31:09.033Z,5.15
2018-12-04T18:33:41.205Z,4.65
2018-12-04T18:36:10.599Z,4.50
2018-12-04T18:38:39.975Z,3.70
2018-12-04T18:41:09.173Z,2.75
2018-12-04T18:43:38.354Z,3.77
2018-12-04T18:46:07.541Z,4.97
2018-12-04T18:48:36.759Z,6.65
2018-12-04T18:51:06.331Z,7.30
2018-12-04T18:53:36.174Z,7.05
2018-12-04T18:56:05.466Z,6.65
2018-12-04T18:58:34.656Z,6.90
2018-12-04T19:01:03.950Z,8.15
2018-12-04T19:03:33.186Z,5.20
2018-12-04T19:06:02.482Z,5.30
2018-12-04T19:08:37.127Z,4.97
2018-12-04T19:11:07.385Z,5.28
2018-12-04T19:13:36.718Z,4.12
2018-12-04T19:16:06.170Z,4.92
2018-12-04T19:18:35.424Z,5.00
2018-12-04T19:21:04.820Z,4.30
2018-12-04T19:23:34.129Z,4.53
2018-12-04T19:26:03.331Z,8.55
2018-12-04T19:28:32.624Z,10.13
2018-12-04T19:31:02.878Z,13.65
2018-12-04T19:33:32.663Z,10.28
2018-12-04T19:36:03.015Z,9.15
2018-12-04T19:38:32.199Z,8.93
2018-12-04T19:41:01.394Z,6.50
2018-12-04T19:43:30.872Z,7.15
2018-12-04T19:46:00.124Z,7.72
2018-12-04T19:48:29.375Z,7.12
2018-12-04T19:50:58.741Z,7.60
2018-12-04T19:53:28.313Z,7.62
2018-12-04T19:55:57.674Z,6.55
2018-12-04T19:58:27.184Z,6.50
2018-12-04T20:00:56.527Z,7.40
2018-12-04T20:03:28.923Z,7.62
2018-12-04T20:05:58.082Z,8.65
2018-12-04T20:08:31.402Z,8.78
2018-12-04T20:11:00.846Z,8.43
2018-12-04T20:13:30.066Z,8.80
2018-12-04T20:15:59.241Z,10.75
2018-12-04T20:18:28.439Z,11.05
2018-12-04T20:20:57.611Z,9.93
2018-12-04T20:23:26.969Z,8.25
2018-12-04T20:25:56.140Z,7.22
2018-12-04T20:28:25.326Z,7.20
2018-12-04T20:30:54.490Z,6.50
2018-12-04T20:33:23.933Z,6.62
2018-12-04T20:35:53.109Z,6.17
2018-12-04T20:38:22.307Z,7.50
2018-12-04T20:40:51.744Z,7.92
2018-12-04T20:43:20.923Z,6.67
2018-12-04T20:45:50.145Z,6.03
2018-12-04T20:48:19.319Z,6.25
2018-12-04T20:50:48.748Z,7.37
2018-12-04T20:53:17.944Z,7.30
2018-12-04T20:55:47.511Z,6.97
2018-12-04T20:58:16.749Z,6.42
2018-12-04T21:00:46.099Z,6.58
2018-12-04T21:03:15.338Z,6.90
2018-12-04T21:05:44.499Z,7.58
2018-12-04T21:08:13.840Z,7.78
2018-12-04T21:10:43.008Z,8.53
2018-12-04T21:13:14.621Z,7.67
2018-12-04T21:15:43.506Z,7.72
2018-12-04T21:18:12.694Z,7.85
2018-12-04T21:20:41.867Z,8.15
2018-12-04T21:23:11.051Z,6.33
2018-12-04T21:25:40.219Z,5.70
2018-12-04T21:28:14.853Z,7.05
2018-12-04T21:30:49.363Z,7.87
2018-12-04T21:33:23.827Z,6.75
2018-12-04T21:35:58.645Z,7.05
2018-12-04T21:38:33.986Z,6.78
2018-12-04T21:41:09.575Z,6.40
2018-12-04T21:43:44.107Z,6.83
2018-12-04T21:46:18.696Z,6.75
2018-12-04T21:48:48.179Z,6.83
2018-12-04T21:51:17.346Z,7.55
2018-12-04T21:53:46.551Z,7.08
2018-12-04T21:56:15.716Z,6.50
2018-12-04T21:58:44.895Z,6.45
2018-12-04T22:01:14.063Z,7.12
2018-12-04T22:03:43.247Z,6.25
2018-12-04T22:06:12.513Z,6.62
2018-12-04T22:08:41.699Z,7.15
2018-12-04T22:11:10.955Z,7.22
2018-12-04T22:13:40.157Z,6.78
2018-12-04T22:16:09.413Z,6.72
2018-12-04T22:18:38.598Z,6.17
2018-12-04T22:21:07.867Z,5.90
2018-12-04T22:23:37.071Z,6.05
2018-12-04T22:26:06.247Z,6.30
2018-12-04T22:28:35.427Z,6.17
2018-12-04T22:31:04.859Z,5.58
2018-12-04T22:33:34.056Z,6.42
2018-12-04T22:36:03.355Z,5.80
2018-12-04T22:38:32.576Z,5.58
2018-12-04T22:41:01.766Z,5.35
2018-12-04T22:43:30.946Z,6.08
2018-12-04T22:46:00.126Z,6.47
2018-12-04T22:48:29.319Z,7.20
2018-12-04T22:50:58.485Z,6.78
2018-12-04T22:53:27.763Z,6.00
2018-12-04T22:55:56.943Z,5.60
2018-12-04T22:58:26.127Z,6.03
2018-12-04T23:00:55.518Z,5.15
2018-12-04T23:03:24.807Z,5.67
2018-12-04T23:05:54.082Z,6.10
2018-12-04T23:08:23.279Z,6.03
2018-12-04T23:10:52.548Z,7.40
2018-12-04T23:13:21.767Z,10.30
2018-12-04T23:15:51.042Z,6.12
2018-12-04T23:18:20.338Z,5.37
2018-12-04T23:20:50.231Z,5.47
2018-12-04T23:23:19.637Z,6.40
2018-12-04T23:25:48.898Z,5.78
2018-12-04T23:28:18.148Z,6.75
2018-12-04T23:30:47.428Z,6.72
2018-12-04T23:33:16.624Z,6.30
2018-12-04T23:35:45.813Z,6.95
2018-12-04T23:38:15.003Z,6.20
2018-12-04T23:40:44.193Z,5.60
2018-12-04T23:43:13.393Z,5.37
2018-12-04T23:45:42.578Z,4.90
2018-12-04T23:48:11.828Z,5.15
2018-12-04T23:50:41.544Z,6.35
2018-12-04T23:53:11.076Z,5.97
2018-12-04T23:55:53.659Z,5.45
2018-12-04T23:58:22.856Z,6.08
